createdAt,value
2023-03-06T00:00:59.386Z,3.50
2023-03-06T00:03:27.959Z,2.90
2023-03-06T00:05:57.266Z,2.90
2023-03-06T00:08:25.469Z,2.60
2023-03-06T00:10:56.251Z,3.00
2023-03-06T00:13:23.778Z,3.00
2023-03-06T00:15:50.507Z,3.00
2023-03-06T00:18:17.198Z,3.00
2023-03-06T00:20:45.140Z,3.00
2023-03-06T00:23:12.410Z,3.00
2023-03-06T00:25:43.934Z,3.00
2023-03-06T00:28:12.310Z,2.90
2023-03-06T00:30:39.233Z,2.90
2023-03-06T00:33:05.889Z,2.90
2023-03-06T00:35:32.607Z,2.90
2023-03-06T00:37:59.747Z,2.80
2023-03-06T00:40:26.833Z,2.80
2023-03-06T00:42:53.502Z,2.80
2023-03-06T00:45:20.294Z,2.90
2023-03-06T00:47:46.929Z,2.90
2023-03-06T00:50:13.633Z,2.90
2023-03-06T00:52:41.807Z,2.90
2023-03-06T00:55:10.261Z,2.90
2023-03-06T00:57:37.052Z,3.00
2023-03-06T01:00:05.519Z,3.00
2023-03-06T01:02:32.572Z,3.00
2023-03-06T01:04:59.424Z,3.00
2023-03-06T01:07:27.650Z,3.00
2023-03-06T01:09:54.366Z,3.00
2023-03-06T01:12:23.411Z,3.00
2023-03-06T01:14:50.319Z,2.90
2023-03-06T01:17:17.301Z,2.90
2023-03-06T01:19:43.922Z,3.00
2023-03-06T01:22:10.638Z,2.90
2023-03-06T01:24:37.298Z,3.00
2023-03-06T01:27:03.964Z,3.00
2023-03-06T01:29:30.677Z,3.00
2023-03-06T01:31:57.325Z,3.10
2023-03-06T01:34:23.992Z,3.10
2023-03-06T01:36:50.597Z,3.00
2023-03-06T01:39:17.262Z,3.10
2023-03-06T01:41:43.892Z,3.00
2023-03-06T01:44:13.500Z,3.00
2023-03-06T01:46:47.054Z,3.00
2023-03-06T01:49:21.200Z,3.00
2023-03-06T01:51:53.202Z,3.00
2023-03-06T01:54:50.443Z,3.00
2023-03-06T01:57:30.877Z,3.00
2023-03-06T02:00:17.009Z,2.90
2023-03-06T02:03:09.212Z,2.80
2023-03-06T02:05:40.921Z,2.80
2023-03-06T02:08:09.685Z,2.80
2023-03-06T02:10:36.353Z,2.80
2023-03-06T02:13:03.192Z,2.80
2023-03-06T02:15:30.817Z,2.90
2023-03-06T02:17:57.471Z,2.90
2023-03-06T02:20:53.036Z,2.90
2023-03-06T02:23:50.465Z,2.90
2023-03-06T02:26:23.767Z,2.90
2023-03-06T02:28:50.428Z,2.90
2023-03-06T02:31:30.366Z,2.90
2023-03-06T02:34:13.945Z,2.90
2023-03-06T02:36:46.458Z,2.90
2023-03-06T02:39:14.554Z,2.90
2023-03-06T02:41:41.560Z,2.90
2023-03-06T02:44:08.323Z,2.90
2023-03-06T02:46:34.997Z,2.90
2023-03-06T02:49:01.844Z,2.80
2023-03-06T02:51:28.507Z,2.80
2023-03-06T02:53:58.026Z,2.80
2023-03-06T02:56:24.649Z,2.80
2023-03-06T02:58:51.998Z,2.80
2023-03-06T03:01:18.794Z,2.80
2023-03-06T03:03:45.454Z,2.80
2023-03-06T03:06:12.032Z,2.80
2023-03-06T03:08:41.372Z,2.80
2023-03-06T03:11:09.179Z,2.90
2023-03-06T03:13:36.334Z,2.90
2023-03-06T03:16:13.794Z,2.90
2023-03-06T03:18:41.262Z,2.90
2023-03-06T03:21:11.485Z,2.90
2023-03-06T03:23:38.214Z,2.80
2023-03-06T03:26:10.470Z,2.70
2023-03-06T03:28:37.343Z,2.70
2023-03-06T03:31:09.665Z,2.70
2023-03-06T03:33:36.867Z,2.70
2023-03-06T03:36:06.792Z,2.60
2023-03-06T03:38:34.197Z,2.60
2023-03-06T03:41:02.079Z,2.50
2023-03-06T03:43:28.713Z,2.50
2023-03-06T03:45:55.317Z,2.40
2023-03-06T03:48:22.322Z,2.40
2023-03-06T03:50:48.925Z,2.40
2023-03-06T03:53:15.519Z,2.50
2023-03-06T03:55:42.208Z,2.50
2023-03-06T03:58:08.887Z,2.50
2023-03-06T04:00:45.592Z,2.50
2023-03-06T04:03:12.184Z,2.50
2023-03-06T04:05:38.775Z,2.50
2023-03-06T04:08:05.633Z,2.50
2023-03-06T04:10:34.177Z,2.50
2023-03-06T04:13:00.963Z,2.50
2023-03-06T04:15:31.576Z,2.50
2023-03-06T04:17:58.423Z,2.60
2023-03-06T04:20:25.931Z,2.60
2023-03-06T04:22:52.513Z,2.50
2023-03-06T04:25:20.314Z,2.50
2023-03-06T04:27:46.931Z,2.50
2023-03-06T04:30:13.867Z,2.50
2023-03-06T04:32:40.504Z,2.50
2023-03-06T04:35:07.499Z,2.50
2023-03-06T04:37:34.140Z,2.50
2023-03-06T04:40:00.821Z,2.50
2023-03-06T04:42:27.661Z,2.50
2023-03-06T04:44:54.298Z,2.50
2023-03-06T04:47:20.945Z,2.50
2023-03-06T04:49:47.558Z,2.50
2023-03-06T04:52:14.144Z,2.50
2023-03-06T04:54:40.791Z,2.40
2023-03-06T04:57:07.920Z,2.40
2023-03-06T04:59:34.574Z,2.50
2023-03-06T05:02:01.247Z,2.50
2023-03-06T05:04:27.876Z,2.50
2023-03-06T05:06:54.508Z,2.40
2023-03-06T05:09:21.115Z,2.40
2023-03-06T05:11:47.693Z,2.40
2023-03-06T05:14:14.269Z,2.40
2023-03-06T05:16:40.964Z,2.40
2023-03-06T05:19:07.564Z,2.40
2023-03-06T05:21:34.201Z,2.40
2023-03-06T05:24:00.937Z,2.40
2023-03-06T05:26:27.571Z,2.40
2023-03-06T05:28:55.182Z,2.40
2023-03-06T05:31:21.819Z,2.40
2023-03-06T05:33:48.444Z,2.40
2023-03-06T05:36:15.045Z,2.40
2023-03-06T05:38:41.643Z,2.40
2023-03-06T05:41:15.156Z,2.30
2023-03-06T05:43:41.969Z,2.20
2023-03-06T05:46:09.085Z,2.30
2023-03-06T05:48:40.096Z,2.20
2023-03-06T05:51:06.840Z,2.10
2023-03-06T05:53:37.550Z,2.20
2023-03-06T05:56:11.522Z,2.10
2023-03-06T05:58:38.476Z,2.10
2023-03-06T06:01:15.208Z,2.20
2023-03-06T06:03:42.173Z,2.20
2023-03-06T06:06:19.013Z,2.20
2023-03-06T06:08:45.640Z,2.20
2023-03-06T06:11:13.990Z,2.20
2023-03-06T06:13:40.970Z,2.20
2023-03-06T06:16:16.261Z,2.20
2023-03-06T06:18:45.699Z,2.20
2023-03-06T06:21:14.629Z,2.20
2023-03-06T06:23:42.010Z,2.30
2023-03-06T06:26:09.508Z,2.30
2023-03-06T06:28:36.863Z,2.30
2023-03-06T06:31:13.585Z,2.40
2023-03-06T06:33:41.231Z,2.40
2023-03-06T06:36:21.452Z,2.40
2023-03-06T06:38:48.875Z,2.40
2023-03-06T06:44:08.914Z,2.50
2023-03-06T06:49:22.788Z,2.60
2023-03-06T06:51:51.939Z,2.60
2023-03-06T06:54:19.772Z,2.60
2023-03-06T06:56:46.383Z,2.60
2023-03-06T06:59:17.510Z,2.60
2023-03-06T07:01:44.559Z,2.70
2023-03-06T07:04:14.793Z,2.70
2023-03-06T07:06:42.991Z,2.80
2023-03-06T07:09:13.628Z,2.80
2023-03-06T07:11:40.912Z,2.90
2023-03-06T07:14:07.932Z,3.00
2023-03-06T07:16:34.826Z,3.10
2023-03-06T07:19:01.501Z,3.10
2023-03-06T07:21:28.193Z,3.20
2023-03-06T07:23:57.122Z,3.30
2023-03-06T07:26:25.605Z,3.40
2023-03-06T07:28:53.565Z,3.50
2023-03-06T07:31:26.841Z,3.50
2023-03-06T07:33:54.726Z,3.50
2023-03-06T07:36:23.157Z,3.60
2023-03-06T07:38:50.084Z,3.70
2023-03-06T07:41:20.444Z,3.70
2023-03-06T07:43:49.826Z,3.70
2023-03-06T07:46:16.577Z,3.60
2023-03-06T07:48:47.616Z,3.50
2023-03-06T07:51:18.749Z,3.40
2023-03-06T07:53:46.197Z,3.40
2023-03-06T07:56:13.624Z,3.30
2023-03-06T07:58:44.461Z,3.30
2023-03-06T08:01:19.743Z,3.30
2023-03-06T08:03:47.544Z,3.30
2023-03-06T08:06:17.069Z,3.30
2023-03-06T08:08:45.718Z,3.30
2023-03-06T08:11:15.159Z,3.40
2023-03-06T08:13:42.253Z,3.50
2023-03-06T08:16:10.528Z,3.60
2023-03-06T08:18:39.559Z,3.60
2023-03-06T08:21:11.452Z,3.60
2023-03-06T08:23:38.706Z,3.60
2023-03-06T08:26:10.564Z,3.60
2023-03-06T08:28:37.450Z,3.50
2023-03-06T08:31:14.354Z,3.40
2023-03-06T08:33:43.458Z,3.50
2023-03-06T08:36:10.296Z,3.60
2023-03-06T08:38:36.915Z,3.60
2023-03-06T08:41:04.063Z,3.80
2023-03-06T08:43:30.786Z,4.00
2023-03-06T08:45:58.873Z,4.10
2023-03-06T08:48:25.798Z,4.20
2023-03-06T08:50:54.248Z,4.40
2023-03-06T08:53:22.736Z,4.60
2023-03-06T08:55:54.678Z,4.70
2023-03-06T08:58:21.339Z,4.70
2023-03-06T09:00:48.847Z,4.90
2023-03-06T09:03:15.551Z,4.90
2023-03-06T09:05:42.256Z,5.00
2023-03-06T09:08:08.946Z,5.00
2023-03-06T09:10:35.608Z,5.30
2023-03-06T09:13:02.360Z,5.60
2023-03-06T09:15:29.197Z,5.80
2023-03-06T09:17:55.869Z,6.00
2023-03-06T09:20:22.650Z,6.00
2023-03-06T09:22:49.282Z,6.30
2023-03-06T09:25:20.368Z,6.60
2023-03-06T09:27:55.436Z,6.50
2023-03-06T09:30:28.663Z,6.60
2023-03-06T09:32:55.324Z,6.40
2023-03-06T09:35:21.938Z,6.30
2023-03-06T09:37:48.556Z,5.90
2023-03-06T09:40:50.788Z,5.80
2023-03-06T09:43:35.445Z,5.60
2023-03-06T09:46:16.526Z,5.50
2023-03-06T09:49:31.435Z,5.40
2023-03-06T09:52:38.407Z,5.30
2023-03-06T09:55:22.682Z,5.30
2023-03-06T09:58:07.542Z,5.60
2023-03-06T10:00:41.710Z,5.80
2023-03-06T10:03:52.470Z,6.00
2023-03-06T10:06:34.560Z,6.10
2023-03-06T10:09:17.493Z,6.10
2023-03-06T10:11:52.945Z,6.10
2023-03-06T10:14:41.952Z,6.20
2023-03-06T10:17:18.940Z,6.40
2023-03-06T10:19:47.580Z,6.80
2023-03-06T10:22:31.364Z,7.00
2023-03-06T10:25:27.784Z,6.90
2023-03-06T10:28:17.352Z,6.60
2023-03-06T10:31:10.323Z,6.60
2023-03-06T10:33:56.318Z,6.60
2023-03-06T10:36:29.544Z,6.50
2023-03-06T10:39:12.494Z,6.50
2023-03-06T10:41:39.091Z,6.50
2023-03-06T10:44:05.683Z,6.50
2023-03-06T10:46:42.185Z,6.40
2023-03-06T10:49:32.557Z,6.40
2023-03-06T10:52:14.471Z,6.50
2023-03-06T10:54:43.866Z,6.50
2023-03-06T10:57:31.761Z,6.60
2023-03-06T11:00:24.114Z,6.70
2023-03-06T11:03:13.549Z,6.80
2023-03-06T11:05:40.454Z,6.90
2023-03-06T11:08:22.753Z,6.80
2023-03-06T11:11:02.038Z,6.90
2023-03-06T11:13:36.195Z,6.70
2023-03-06T11:16:10.490Z,6.50
2023-03-06T11:18:42.674Z,6.40
2023-03-06T11:21:31.404Z,6.20
2023-03-06T11:24:06.010Z,6.10
2023-03-06T11:26:53.246Z,6.00
2023-03-06T11:29:38.867Z,6.00
2023-03-06T11:32:29.866Z,5.90
2023-03-06T11:35:22.489Z,5.90
2023-03-06T11:38:04.852Z,6.10
2023-03-06T11:40:44.892Z,6.40
2023-03-06T11:43:49.904Z,6.40
2023-03-06T11:46:29.165Z,6.60
2023-03-06T11:49:24.622Z,6.50
2023-03-06T11:52:06.931Z,6.20
2023-03-06T11:54:33.674Z,6.10
2023-03-06T11:57:07.976Z,5.90
2023-03-06T12:00:04.279Z,5.80
2023-03-06T12:03:20.186Z,5.90
2023-03-06T12:05:55.821Z,6.20
2023-03-06T12:08:48.021Z,6.30
2023-03-06T12:11:29.697Z,6.30
2023-03-06T12:14:22.549Z,6.50
2023-03-06T12:17:02.562Z,6.60
2023-03-06T12:20:11.719Z,6.70
2023-03-06T12:22:57.722Z,6.60
2023-03-06T12:25:54.392Z,6.80
2023-03-06T12:28:42.373Z,6.80
2023-03-06T12:31:42.692Z,6.80
2023-03-06T12:34:42.917Z,6.80
2023-03-06T12:37:35.236Z,6.60
2023-03-06T12:40:30.640Z,6.60
2023-03-06T12:43:51.204Z,6.60
2023-03-06T12:46:22.871Z,6.60
2023-03-06T12:49:32.476Z,6.70
2023-03-06T12:52:01.151Z,6.60
2023-03-06T12:54:31.393Z,6.60
2023-03-06T12:57:00.275Z,6.50
2023-03-06T12:59:48.681Z,6.60
2023-03-06T13:02:51.542Z,6.70
2023-03-06T13:05:50.372Z,6.60
2023-03-06T13:08:52.581Z,6.60
2023-03-06T13:11:38.977Z,6.60
2023-03-06T13:14:37.563Z,6.70
2023-03-06T13:17:21.182Z,6.80
2023-03-06T13:19:48.669Z,6.80
2023-03-06T13:22:28.026Z,6.90
2023-03-06T13:25:16.533Z,7.10
2023-03-06T13:27:53.097Z,7.20
2023-03-06T13:30:43.052Z,7.40
2023-03-06T13:33:29.770Z,7.30
2023-03-06T13:35:58.282Z,7.30
2023-03-06T13:38:59.887Z,7.40
2023-03-06T13:41:37.513Z,7.50
2023-03-06T13:44:39.763Z,7.70
2023-03-06T13:47:25.261Z,7.70
2023-03-06T13:49:52.004Z,7.70
2023-03-06T13:52:26.162Z,7.60
2023-03-06T13:54:55.432Z,7.70
2023-03-06T13:57:51.823Z,7.90
2023-03-06T14:00:46.338Z,8.10
2023-03-06T14:04:01.023Z,8.20
2023-03-06T14:06:41.670Z,8.10
2023-03-06T14:09:30.509Z,8.10
2023-03-06T14:12:06.641Z,7.90
2023-03-06T14:14:48.898Z,7.80
2023-03-06T14:17:32.281Z,7.90
2023-03-06T14:20:13.882Z,7.90
2023-03-06T14:22:40.746Z,7.80
2023-03-06T14:25:28.340Z,7.80
2023-03-06T14:27:58.288Z,7.80
2023-03-06T14:30:32.191Z,7.70
2023-03-06T14:32:59.191Z,7.50
2023-03-06T14:35:30.406Z,7.30
2023-03-06T14:38:02.052Z,7.10
2023-03-06T14:40:45.006Z,6.90
2023-03-06T14:43:24.325Z,6.70
2023-03-06T14:46:00.486Z,6.60
2023-03-06T14:48:39.523Z,6.50
2023-03-06T14:51:14.225Z,6.50
2023-03-06T14:53:41.215Z,6.50
2023-03-06T14:56:08.012Z,6.50
2023-03-06T14:58:44.402Z,6.50
2023-03-06T15:01:13.376Z,6.40
2023-03-06T15:03:49.526Z,6.40
2023-03-06T15:06:38.265Z,6.40
2023-03-06T15:09:16.905Z,6.50
2023-03-06T15:12:04.543Z,6.40
2023-03-06T15:14:41.790Z,6.30
2023-03-06T15:17:17.285Z,6.20
2023-03-06T15:19:47.005Z,6.10
2023-03-06T15:22:26.900Z,6.00
2023-03-06T15:25:03.737Z,5.90
2023-03-06T15:27:30.643Z,5.90
2023-03-06T15:30:43.232Z,5.90
2023-03-06T15:33:17.894Z,5.70
2023-03-06T15:36:03.624Z,5.70
2023-03-06T15:38:43.103Z,5.70
2023-03-06T15:41:35.583Z,5.60
2023-03-06T15:44:11.050Z,5.50
2023-03-06T15:46:37.725Z,5.40
2023-03-06T15:49:04.763Z,5.30
2023-03-06T15:51:33.637Z,5.30
2023-03-06T15:54:11.249Z,5.20
2023-03-06T15:56:42.195Z,5.20
2023-03-06T15:59:21.588Z,5.20
2023-03-06T16:01:49.153Z,5.20
2023-03-06T16:04:16.936Z,5.10
2023-03-06T16:06:45.680Z,5.10
2023-03-06T16:09:13.664Z,5.10
2023-03-06T16:11:47.124Z,5.10
2023-03-06T16:14:21.167Z,4.90
2023-03-06T16:16:48.496Z,4.90
2023-03-06T16:19:27.897Z,4.80
2023-03-06T16:21:56.465Z,4.70
2023-03-06T16:24:23.421Z,4.70
2023-03-06T16:26:52.410Z,4.60
2023-03-06T16:29:22.861Z,4.60
2023-03-06T16:31:49.868Z,4.50
2023-03-06T16:34:16.956Z,4.50
2023-03-06T16:36:43.555Z,4.50
2023-03-06T16:39:18.592Z,4.50
2023-03-06T16:41:49.281Z,4.50
2023-03-06T16:44:16.249Z,4.50
2023-03-06T16:46:49.064Z,4.50
2023-03-06T16:49:24.098Z,4.50
2023-03-06T16:51:51.960Z,4.50
2023-03-06T16:54:19.689Z,4.60
2023-03-06T16:56:46.342Z,4.60
2023-03-06T16:59:13.301Z,4.50
2023-03-06T17:01:42.804Z,4.50
2023-03-06T17:04:09.778Z,4.40
2023-03-06T17:06:37.040Z,4.40
2023-03-06T17:09:07.854Z,4.30
2023-03-06T17:11:38.517Z,4.30
2023-03-06T17:14:06.692Z,4.30
2023-03-06T17:16:33.331Z,4.30
2023-03-06T17:19:01.904Z,4.30
2023-03-06T17:21:30.067Z,4.30
2023-03-06T17:23:57.140Z,4.20
2023-03-06T17:26:23.891Z,4.20
2023-03-06T17:28:50.497Z,4.20
2023-03-06T17:31:20.695Z,4.20
2023-03-06T17:33:48.002Z,4.10
2023-03-06T17:36:16.146Z,4.10
2023-03-06T17:38:43.364Z,4.10
2023-03-06T17:41:12.971Z,4.10
2023-03-06T17:43:40.463Z,4.00
2023-03-06T17:46:10.809Z,4.00
2023-03-06T17:48:37.886Z,4.00
2023-03-06T17:51:05.448Z,4.00
2023-03-06T17:53:32.176Z,4.00
2023-03-06T17:55:58.881Z,3.90
2023-03-06T17:58:26.872Z,4.00
2023-03-06T18:00:53.822Z,3.90
2023-03-06T18:03:20.597Z,3.80
2023-03-06T18:05:47.295Z,3.90
2023-03-06T18:08:14.051Z,3.90
2023-03-06T18:10:42.025Z,3.90
2023-03-06T18:13:10.020Z,3.90
2023-03-06T18:15:40.660Z,3.90
2023-03-06T18:18:09.293Z,3.90
2023-03-06T18:20:41.450Z,3.90
2023-03-06T18:23:08.534Z,3.90
2023-03-06T18:25:38.710Z,3.90
2023-03-06T18:28:05.953Z,3.90
2023-03-06T18:30:36.572Z,3.90
2023-03-06T18:33:03.572Z,3.80
2023-03-06T18:35:34.282Z,4.00
2023-03-06T18:38:01.338Z,3.70
2023-03-06T18:40:28.110Z,3.70
2023-03-06T18:42:55.119Z,3.70
2023-03-06T18:45:21.757Z,3.70
2023-03-06T18:47:48.435Z,3.70
2023-03-06T18:50:17.350Z,3.70
2023-03-06T18:52:47.776Z,3.70
2023-03-06T18:55:14.416Z,3.70
2023-03-06T18:57:41.270Z,3.70
2023-03-06T19:00:09.393Z,3.60
2023-03-06T19:02:35.973Z,3.60
2023-03-06T19:05:03.017Z,3.60
2023-03-06T19:07:29.684Z,3.60
2023-03-06T19:09:56.268Z,3.60
2023-03-06T19:12:23.361Z,3.70
2023-03-06T19:14:50.196Z,3.70
2023-03-06T19:17:16.767Z,3.60
2023-03-06T19:19:43.444Z,3.60
2023-03-06T19:22:10.034Z,3.60
2023-03-06T19:24:36.645Z,3.60
2023-03-06T19:27:03.241Z,3.60
2023-03-06T19:29:29.940Z,3.60
2023-03-06T19:31:57.320Z,3.60
2023-03-06T19:34:24.101Z,3.60
2023-03-06T19:36:51.468Z,3.50
2023-03-06T19:39:18.099Z,3.50
2023-03-06T19:41:47.442Z,3.50
2023-03-06T19:44:16.017Z,3.50
2023-03-06T19:46:43.424Z,3.40
2023-03-06T19:49:16.683Z,3.40
2023-03-06T19:51:43.862Z,3.30
2023-03-06T19:54:12.815Z,3.40
2023-03-06T19:56:39.941Z,3.30
2023-03-06T19:59:06.594Z,3.30
2023-03-06T20:01:34.096Z,3.30
2023-03-06T20:04:01.158Z,3.30
2023-03-06T20:06:33.541Z,3.30
2023-03-06T20:09:02.349Z,3.20
2023-03-06T20:11:32.387Z,3.20
2023-03-06T20:14:09.032Z,3.20
2023-03-06T20:16:35.747Z,3.20
2023-03-06T20:19:02.584Z,3.10
2023-03-06T20:21:32.851Z,3.10
2023-03-06T20:23:59.774Z,3.10
2023-03-06T20:26:28.761Z,3.00
2023-03-06T20:28:56.068Z,3.00
2023-03-06T20:31:27.086Z,3.00
2023-03-06T20:33:56.314Z,3.00
2023-03-06T20:36:30.445Z,3.00
2023-03-06T20:39:01.288Z,3.00
2023-03-06T20:41:32.107Z,2.90
2023-03-06T20:44:04.034Z,2.90
2023-03-06T20:46:32.886Z,2.90
2023-03-06T20:49:08.171Z,2.90
2023-03-06T20:51:38.919Z,2.90
2023-03-06T20:54:08.391Z,2.90
2023-03-06T20:56:39.219Z,2.90
2023-03-06T20:59:11.827Z,2.90
2023-03-06T21:01:42.071Z,2.90
2023-03-06T21:04:11.080Z,2.90
2023-03-06T21:06:38.204Z,2.80
2023-03-06T21:09:06.641Z,2.80
2023-03-06T21:11:35.145Z,2.90
2023-03-06T21:14:01.941Z,2.80
2023-03-06T21:16:30.855Z,2.80
2023-03-06T21:18:59.579Z,2.80
2023-03-06T21:21:30.224Z,2.70
2023-03-06T21:23:57.496Z,2.70
2023-03-06T21:26:27.420Z,2.70
2023-03-06T21:28:56.806Z,2.70
2023-03-06T21:31:24.716Z,2.70
2023-03-06T21:33:51.630Z,2.70
2023-03-06T21:36:21.571Z,2.60
2023-03-06T21:38:51.595Z,2.60
2023-03-06T21:41:27.281Z,2.60
2023-03-06T21:44:03.307Z,2.60
2023-03-06T21:46:30.514Z,2.50
2023-03-06T21:48:57.912Z,2.50
2023-03-06T21:51:26.471Z,2.50
2023-03-06T21:53:54.557Z,2.40
2023-03-06T21:56:24.859Z,2.40
2023-03-06T21:58:51.624Z,2.30
2023-03-06T22:01:26.485Z,2.30
2023-03-06T22:03:59.753Z,2.30
2023-03-06T22:06:28.708Z,2.20
2023-03-06T22:08:56.779Z,2.30
2023-03-06T22:11:24.727Z,2.20
2023-03-06T22:13:53.219Z,2.20
2023-03-06T22:16:20.714Z,2.20
2023-03-06T22:18:50.431Z,2.20
2023-03-06T22:21:20.322Z,2.20
2023-03-06T22:23:51.847Z,2.20
2023-03-06T22:26:18.889Z,2.10
2023-03-06T22:28:45.850Z,2.10
2023-03-06T22:31:19.417Z,2.10
2023-03-06T22:33:46.327Z,2.10
2023-03-06T22:36:15.832Z,2.00
2023-03-06T22:38:45.302Z,2.00
2023-03-06T22:41:14.684Z,2.00
2023-03-06T22:43:42.280Z,2.00
2023-03-06T22:46:15.930Z,2.00
2023-03-06T22:48:43.446Z,1.90
2023-03-06T22:51:16.657Z,1.90
2023-03-06T22:53:43.868Z,1.90
2023-03-06T22:56:14.173Z,1.90
2023-03-06T22:58:41.172Z,1.90
2023-03-06T23:01:10.329Z,1.90
2023-03-06T23:03:39.873Z,2.00
2023-03-06T23:06:18.828Z,2.00
2023-03-06T23:08:56.646Z,2.10
2023-03-06T23:11:24.724Z,2.10
2023-03-06T23:13:52.725Z,2.20
2023-03-06T23:16:19.475Z,2.30
2023-03-06T23:18:48.254Z,2.30
2023-03-06T23:21:17.267Z,2.30
2023-03-06T23:23:48.940Z,2.40
2023-03-06T23:26:22.268Z,2.50
2023-03-06T23:28:49.211Z,2.50
2023-03-06T23:31:20.840Z,2.50
2023-03-06T23:33:47.913Z,2.50
2023-03-06T23:36:17.481Z,2.50
2023-03-06T23:38:44.453Z,2.50
2023-03-06T23:41:16.436Z,2.60
2023-03-06T23:43:43.614Z,2.60
2023-03-06T23:46:10.481Z,2.60
2023-03-06T23:48:40.573Z,2.60
2023-03-06T23:51:10.110Z,2.60
2023-03-06T23:53:36.783Z,2.60
2023-03-06T23:56:06.189Z,2.60
2023-03-06T23:58:33.115Z,2.60
